Details From OMRK - RAS AL KHAIMAH INTL
To ORER - ERBIL INTL
Flight Number -
Tags decoded
Created
Modified
Stats Distance 911 nm / 1,688 km
Max Altitude 0 ft / 0 m
Waypoints 6
Social Downloads 0
Likes 0
Share VATSIM

Download

Looking for another format? Having issues loading an existing format? Contact us
Advertisement - Login to hide

Notes

Requested: OMRK RAV R401 DARAX Q1 LOVID W136 BOXIX M434 UMESA L417 VUSEB ORER Unmatched points: W136 BOXIX M434 UMESA L417 VUSEB

Route

OMRK RAV R401 DARAX LOVID ORER

ID Type Via Altitude Latitude Longitude Leg Dist Tot Dist Heading (true) Name
O OMRK APT - 0 ft / 0 m 25.61335˚ 55.93883˚ - 0 nm - RAS AL KHAIMAH INTL
RAV VOR - 0 ft / 0 m 25.58843˚ 55.94633˚ 1 nm 1 nm 165° / 165° RAS AL KHAIMAH VOR-DME
IMTEN FIX R401 (AWY-HI) 0 ft / 0 m 25.88806˚ 55.91361˚ 18 nm 19 nm 354° / 354° -
DARAX FIX R401 (AWY-LO) 0 ft / 0 m 26.16167˚ 55.88333˚ 16 nm 36 nm 354° / 354° -
LOVID FIX - 0 ft / 0 m 35.12778˚ 47.47806˚ 691 nm 727 nm 323° / 319° -
O ORER APT - 0 ft / 0 m 36.23745˚ 43.95919˚ 184 nm 911 nm 292° / 290° ERBIL INTL

Altitude Profile

Advertisement - Login to hide

Weather


0- 5 10 15 20 25 30 35+ Temperature / ° C

Clouds and Precipitation
Forecast for 2017-12-14 06:00 UTC. Updated an hour ago

Ground ~20,000 ft ~40,000 ft Winds

OMRK

Details ICAO OMRK (RKT)
Name RAS AL KHAIMAH INTL
Region United Arab Emirates
Timezone Asia/Dubai (UTC+4.0)
Stats Elevation 102 ft / 31 m (AMSL)
Location 25.613352° 55.938831°
Runways 1
Magnetic Variation 2.053° E

METAR

OMRK 140200Z 00000KT CAVOK 11/05 Q1018 A3006

Decode

TAF

TAF OMRK 132301Z 1400/1506 11007KT 8000 NSC PROB30 TEMPO 1404/1412 11018KT 4000 BLDU BECMG 1410/1412 34013KT BECMG 1412/1414 13008KT

Decode

Departure Runways

ID Width Length Bearing (true) Bearing (mag) Surface Threshold Offset Overrun Length
16 148 ft / 45 m 12,391 ft / 3,777 m 164.83° 162.78° Asphalt 0 ft / 0 m 165 ft / 50 m
34 148 ft / 45 m 12,391 ft / 3,777 m 344.84° 342.79° Asphalt 0 ft / 0 m 165 ft / 50 m

ORER

Details ICAO ORER (EBL)
Name ERBIL INTL
Region Iraq
Timezone Asia/Baghdad (UTC+3.0)
Stats Elevation 1,341 ft / 409 m (AMSL)
Location 36.237450° 43.959191°
Runways 3
Magnetic Variation 5.243° E

METAR

ORER 140200Z 03005KT CAVOK 07/M01 Q1018 NOSIG

Decode

TAF

TAF ORER 132200Z 1400/1424 VRB03KT 8000 SCT030

Decode

Destination Runways

ID Width Length Bearing (true) Bearing (mag) Surface Threshold Offset Overrun Length
15 95 ft / 29 m 9,209 ft / 2,807 m 151.77° 146.53° Asphalt 0 ft / 0 m 185 ft / 56 m
15L 105 ft / 32 m 4,089 ft / 1,246 m 151.76° 146.52° Asphalt 0 ft / 0 m 0 ft / 0 m
18 225 ft / 69 m 13,864 ft / 4,226 m 180.44° 175.20° Asphalt 0 ft / 0 m 0 ft / 0 m
33 95 ft / 29 m 9,209 ft / 2,807 m 331.78° 326.54° Asphalt 0 ft / 0 m 185 ft / 56 m
33R 105 ft / 32 m 4,089 ft / 1,246 m 331.76° 326.52° Asphalt 0 ft / 0 m 0 ft / 0 m
36 225 ft / 69 m 13,864 ft / 4,226 m 0.44° 355.20° Asphalt 0 ft / 0 m 0 ft / 0 m